sensor_id;sensor_type;location;lat;lon;timestamp;temperature;humidity
4739;DHT22;2383;48.632;10.156;2024-01-16T00:01:37;-2.10;94.40
4739;DHT22;2383;48.632;10.156;2024-01-16T00:05:43;-2.50;94.10
4739;DHT22;2383;48.632;10.156;2024-01-16T00:09:45;-2.70;94.20
4739;DHT22;2383;48.632;10.156;2024-01-16T00:13:47;-3.10;95.10
4739;DHT22;2383;48.632;10.156;2024-01-16T00:17:50;-2.70;94.40
4739;DHT22;2383;48.632;10.156;2024-01-16T00:21:53;-2.90;94.70
4739;DHT22;2383;48.632;10.156;2024-01-16T00:25:55;-2.70;94.80
4739;DHT22;2383;48.632;10.156;2024-01-16T00:29:56;-3.00;94.70
4739;DHT22;2383;48.632;10.156;2024-01-16T00:33:58;-3.00;95.10
4739;DHT22;2383;48.632;10.156;2024-01-16T00:38:00;-2.90;94.50
4739;DHT22;2383;48.632;10.156;2024-01-16T00:42:02;-2.80;94.40
4739;DHT22;2383;48.632;10.156;2024-01-16T00:46:04;-2.50;95.00
4739;DHT22;2383;48.632;10.156;2024-01-16T00:50:06;-2.30;94.30
4739;DHT22;2383;48.632;10.156;2024-01-16T00:54:08;-2.70;94.40
4739;DHT22;2383;48.632;10.156;2024-01-16T00:58:10;-2.40;94.20
4739;DHT22;2383;48.632;10.156;2024-01-16T01:02:12;-2.00;94.20
4739;DHT22;2383;48.632;10.156;2024-01-16T01:06:14;-2.10;93.70
4739;DHT22;2383;48.632;10.156;2024-01-16T01:10:16;-2.90;93.80
4739;DHT22;2383;48.632;10.156;2024-01-16T01:14:18;-3.10;94.40
4739;DHT22;2383;48.632;10.156;2024-01-16T01:18:20;-2.30;94.20
4739;DHT22;2383;48.632;10.156;2024-01-16T01:22:22;-2.30;94.00
4739;DHT22;2383;48.632;10.156;2024-01-16T01:26:24;-3.10;94.40
4739;DHT22;2383;48.632;10.156;2024-01-16T01:30:26;-2.60;94.60
4739;DHT22;2383;48.632;10.156;2024-01-16T01:34:28;-2.40;94.40
4739;DHT22;2383;48.632;10.156;2024-01-16T01:38:30;-2.20;93.60
4739;DHT22;2383;48.632;10.156;2024-01-16T01:42:32;-2.10;93.70
4739;DHT22;2383;48.632;10.156;2024-01-16T01:46:35;-2.20;93.40
4739;DHT22;2383;48.632;10.156;2024-01-16T01:50:37;-2.10;93.50
4739;DHT22;2383;48.632;10.156;2024-01-16T01:54:40;-2.40;93.60
4739;DHT22;2383;48.632;10.156;2024-01-16T01:58:47;-2.60;93.80
4739;DHT22;2383;48.632;10.156;2024-01-16T02:02:49;-3.30;94.80
4739;DHT22;2383;48.632;10.156;2024-01-16T02:06:54;-2.90;94.70
4739;DHT22;2383;48.632;10.156;2024-01-16T02:10:58;-2.70;94.00
4739;DHT22;2383;48.632;10.156;2024-01-16T02:15:00;-2.90;94.20
4739;DHT22;2383;48.632;10.156;2024-01-16T02:19:02;-3.00;94.60
4739;DHT22;2383;48.632;10.156;2024-01-16T02:23:04;-3.10;94.40
4739;DHT22;2383;48.632;10.156;2024-01-16T02:27:08;-2.80;94.10
4739;DHT22;2383;48.632;10.156;2024-01-16T02:31:10;-2.70;93.90
4739;DHT22;2383;48.632;10.156;2024-01-16T02:35:12;-3.60;94.60
4739;DHT22;2383;48.632;10.156;2024-01-16T02:39:13;-3.90;94.90
4739;DHT22;2383;48.632;10.156;2024-01-16T02:43:16;-4.00;95.40
4739;DHT22;2383;48.632;10.156;2024-01-16T02:47:18;-4.20;95.80
4739;DHT22;2383;48.632;10.156;2024-01-16T02:51:20;-4.40;95.60
4739;DHT22;2383;48.632;10.156;2024-01-16T02:55:22;-4.80;96.10
4739;DHT22;2383;48.632;10.156;2024-01-16T02:59:23;-5.00;95.80
4739;DHT22;2383;48.632;10.156;2024-01-16T03:03:26;-4.10;95.80
4739;DHT22;2383;48.632;10.156;2024-01-16T03:07:29;-4.10;95.20
4739;DHT22;2383;48.632;10.156;2024-01-16T03:11:31;-4.30;95.50
4739;DHT22;2383;48.632;10.156;2024-01-16T03:15:34;-4.10;96.00
4739;DHT22;2383;48.632;10.156;2024-01-16T03:19:39;-3.90;95.00
4739;DHT22;2383;48.632;10.156;2024-01-16T03:23:41;-4.20;95.70
4739;DHT22;2383;48.632;10.156;2024-01-16T03:27:43;-3.40;95.00
4739;DHT22;2383;48.632;10.156;2024-01-16T03:31:45;-3.40;95.10
4739;DHT22;2383;48.632;10.156;2024-01-16T03:35:47;-3.60;95.00
4739;DHT22;2383;48.632;10.156;2024-01-16T03:39:49;-3.90;95.70
4739;DHT22;2383;48.632;10.156;2024-01-16T03:43:51;-3.60;95.40
4739;DHT22;2383;48.632;10.156;2024-01-16T03:47:55;-3.50;94.70
4739;DHT22;2383;48.632;10.156;2024-01-16T03:51:57;-3.30;94.70
4739;DHT22;2383;48.632;10.156;2024-01-16T03:55:59;-3.20;94.90
4739;DHT22;2383;48.632;10.156;2024-01-16T04:00:00;-2.80;94.40
4739;DHT22;2383;48.632;10.156;2024-01-16T04:04:05;-3.00;94.50
4739;DHT22;2383;48.632;10.156;2024-01-16T04:08:08;-3.00;94.30
4739;DHT22;2383;48.632;10.156;2024-01-16T04:12:10;-2.40;94.30
4739;DHT22;2383;48.632;10.156;2024-01-16T04:16:12;-2.60;94.10
4739;DHT22;2383;48.632;10.156;2024-01-16T04:20:14;-2.70;94.30
4739;DHT22;2383;48.632;10.156;2024-01-16T04:24:16;-2.60;93.90
4739;DHT22;2383;48.632;10.156;2024-01-16T04:28:18;-2.20;94.10
4739;DHT22;2383;48.632;10.156;2024-01-16T04:32:22;-1.90;93.40
4739;DHT22;2383;48.632;10.156;2024-01-16T04:36:24;-2.00;93.10
4739;DHT22;2383;48.632;10.156;2024-01-16T04:40:26;-2.20;93.60
4739;DHT22;2383;48.632;10.156;2024-01-16T04:44:28;-2.30;93.70
4739;DHT22;2383;48.632;10.156;2024-01-16T04:48:30;-3.20;93.50
4739;DHT22;2383;48.632;10.156;2024-01-16T04:52:32;-3.50;94.60
4739;DHT22;2383;48.632;10.156;2024-01-16T04:56:34;-2.70;94.10
4739;DHT22;2383;48.632;10.156;2024-01-16T05:00:36;-2.60;94.00
4739;DHT22;2383;48.632;10.156;2024-01-16T05:04:38;-2.20;93.70
4739;DHT22;2383;48.632;10.156;2024-01-16T05:08:40;-2.00;93.10
4739;DHT22;2383;48.632;10.156;2024-01-16T05:12:42;-2.00;92.90
4739;DHT22;2383;48.632;10.156;2024-01-16T05:16:45;-2.20;92.80
4739;DHT22;2383;48.632;10.156;2024-01-16T05:20:47;-2.20;92.90
4739;DHT22;2383;48.632;10.156;2024-01-16T05:24:48;-2.30;92.90
4739;DHT22;2383;48.632;10.156;2024-01-16T05:28:51;-2.30;92.70
4739;DHT22;2383;48.632;10.156;2024-01-16T05:32:53;-2.40;92.80
4739;DHT22;2383;48.632;10.156;2024-01-16T05:36:55;-2.40;93.20
4739;DHT22;2383;48.632;10.156;2024-01-16T05:40:57;-2.40;93.00
4739;DHT22;2383;48.632;10.156;2024-01-16T05:44:59;-2.50;92.60
4739;DHT22;2383;48.632;10.156;2024-01-16T05:49:01;-3.10;92.50
4739;DHT22;2383;48.632;10.156;2024-01-16T05:53:03;-3.50;92.70
4739;DHT22;2383;48.632;10.156;2024-01-16T05:57:05;-4.30;93.20
4739;DHT22;2383;48.632;10.156;2024-01-16T06:01:07;-4.00;93.00
4739;DHT22;2383;48.632;10.156;2024-01-16T06:05:09;-3.70;92.80
4739;DHT22;2383;48.632;10.156;2024-01-16T06:09:11;-3.40;92.20
4739;DHT22;2383;48.632;10.156;2024-01-16T06:13:16;-3.50;92.00
4739;DHT22;2383;48.632;10.156;2024-01-16T06:17:18;-3.40;92.20
4739;DHT22;2383;48.632;10.156;2024-01-16T06:21:20;-3.40;91.90
4739;DHT22;2383;48.632;10.156;2024-01-16T06:25:25;-3.20;92.00
4739;DHT22;2383;48.632;10.156;2024-01-16T06:29:27;-3.10;91.50
4739;DHT22;2383;48.632;10.156;2024-01-16T06:33:36;-3.20;91.60
4739;DHT22;2383;48.632;10.156;2024-01-16T06:37:38;-3.60;92.00
4739;DHT22;2383;48.632;10.156;2024-01-16T06:41:43;-3.40;92.10
4739;DHT22;2383;48.632;10.156;2024-01-16T06:45:44;-3.30;91.90
4739;DHT22;2383;48.632;10.156;2024-01-16T06:49:46;-3.40;92.20
4739;DHT22;2383;48.632;10.156;2024-01-16T06:53:48;-3.70;91.80
4739;DHT22;2383;48.632;10.156;2024-01-16T06:57:50;-3.90;91.60
4739;DHT22;2383;48.632;10.156;2024-01-16T07:01:52;-3.60;92.10
4739;DHT22;2383;48.632;10.156;2024-01-16T07:05:56;-3.40;91.90
4739;DHT22;2383;48.632;10.156;2024-01-16T07:09:58;-3.40;91.70
4739;DHT22;2383;48.632;10.156;2024-01-16T07:14:00;-3.80;91.80
4739;DHT22;2383;48.632;10.156;2024-01-16T07:18:02;-3.60;92.10
4739;DHT22;2383;48.632;10.156;2024-01-16T07:22:04;-3.40;91.70
4739;DHT22;2383;48.632;10.156;2024-01-16T07:26:06;-3.40;91.70
4739;DHT22;2383;48.632;10.156;2024-01-16T07:30:09;-3.30;91.60
4739;DHT22;2383;48.632;10.156;2024-01-16T07:34:11;-3.40;91.60
4739;DHT22;2383;48.632;10.156;2024-01-16T07:38:14;-3.20;91.70
4739;DHT22;2383;48.632;10.156;2024-01-16T07:42:17;-3.10;91.50
4739;DHT22;2383;48.632;10.156;2024-01-16T07:46:19;-3.10;91.70
4739;DHT22;2383;48.632;10.156;2024-01-16T07:50:21;-3.00;91.40
4739;DHT22;2383;48.632;10.156;2024-01-16T07:54:22;-3.00;91.50
4739;DHT22;2383;48.632;10.156;2024-01-16T07:58:25;-2.90;91.60
4739;DHT22;2383;48.632;10.156;2024-01-16T08:02:32;-2.90;91.60
4739;DHT22;2383;48.632;10.156;2024-01-16T08:06:34;-2.80;91.50
4739;DHT22;2383;48.632;10.156;2024-01-16T08:10:37;-2.70;91.20
4739;DHT22;2383;48.632;10.156;2024-01-16T08:14:39;-2.70;91.00
4739;DHT22;2383;48.632;10.156;2024-01-16T08:18:41;-2.80;91.50
4739;DHT22;2383;48.632;10.156;2024-01-16T08:22:43;-2.60;91.30
4739;DHT22;2383;48.632;10.156;2024-01-16T08:26:45;-2.70;91.10
4739;DHT22;2383;48.632;10.156;2024-01-16T08:30:47;-2.70;91.50
4739;DHT22;2383;48.632;10.156;2024-01-16T08:34:48;-2.60;91.30
4739;DHT22;2383;48.632;10.156;2024-01-16T08:38:50;-2.40;91.30
4739;DHT22;2383;48.632;10.156;2024-01-16T08:42:52;-2.60;91.00
4739;DHT22;2383;48.632;10.156;2024-01-16T08:46:58;-2.40;91.20
4739;DHT22;2383;48.632;10.156;2024-01-16T08:51:06;-2.30;90.80
4739;DHT22;2383;48.632;10.156;2024-01-16T08:55:09;-2.10;91.00
4739;DHT22;2383;48.632;10.156;2024-01-16T08:59:11;-2.00;91.00
4739;DHT22;2383;48.632;10.156;2024-01-16T09:03:13;-1.90;90.80
4739;DHT22;2383;48.632;10.156;2024-01-16T09:07:15;-1.90;91.00
4739;DHT22;2383;48.632;10.156;2024-01-16T09:11:17;-1.80;91.00
4739;DHT22;2383;48.632;10.156;2024-01-16T09:15:19;-1.70;90.80
4739;DHT22;2383;48.632;10.156;2024-01-16T09:19:22;-1.60;90.50
4739;DHT22;2383;48.632;10.156;2024-01-16T09:23:24;-1.50;90.50
4739;DHT22;2383;48.632;10.156;2024-01-16T09:27:25;-1.60;90.60
4739;DHT22;2383;48.632;10.156;2024-01-16T09:31:27;-1.50;90.50
4739;DHT22;2383;48.632;10.156;2024-01-16T09:35:29;-1.50;90.50
4739;DHT22;2383;48.632;10.156;2024-01-16T09:39:31;-1.40;90.50
4739;DHT22;2383;48.632;10.156;2024-01-16T09:43:36;-1.40;90.20
4739;DHT22;2383;48.632;10.156;2024-01-16T09:47:39;-1.40;90.30
4739;DHT22;2383;48.632;10.156;2024-01-16T09:51:42;-1.30;90.00
4739;DHT22;2383;48.632;10.156;2024-01-16T09:55:45;-1.60;89.70
4739;DHT22;2383;48.632;10.156;2024-01-16T09:59:48;-1.60;90.10
4739;DHT22;2383;48.632;10.156;2024-01-16T10:03:50;-1.50;90.00
4739;DHT22;2383;48.632;10.156;2024-01-16T10:07:54;-1.40;90.10
4739;DHT22;2383;48.632;10.156;2024-01-16T10:11:56;-2.10;89.80
4739;DHT22;2383;48.632;10.156;2024-01-16T10:15:59;-1.80;90.30
4739;DHT22;2383;48.632;10.156;2024-01-16T10:20:01;-1.60;90.00
4739;DHT22;2383;48.632;10.156;2024-01-16T10:24:12;-2.70;90.50
4739;DHT22;2383;48.632;10.156;2024-01-16T10:28:19;-2.60;91.10
4739;DHT22;2383;48.632;10.156;2024-01-16T10:32:30;-2.30;90.90
4739;DHT22;2383;48.632;10.156;2024-01-16T10:36:33;-2.10;90.70
4739;DHT22;2383;48.632;10.156;2024-01-16T10:40:35;-1.50;90.60
4739;DHT22;2383;48.632;10.156;2024-01-16T10:44:37;-1.10;90.10
4739;DHT22;2383;48.632;10.156;2024-01-16T10:48:41;-0.90;89.70
4739;DHT22;2383;48.632;10.156;2024-01-16T10:52:48;-0.80;90.00
4739;DHT22;2383;48.632;10.156;2024-01-16T10:56:55;-0.60;90.10
4739;DHT22;2383;48.632;10.156;2024-01-16T11:01:02;-0.60;90.10
4739;DHT22;2383;48.632;10.156;2024-01-16T11:05:07;-0.40;90.00
4739;DHT22;2383;48.632;10.156;2024-01-16T11:09:14;-0.30;89.50
4739;DHT22;2383;48.632;10.156;2024-01-16T11:13:20;-0.90;89.20
4739;DHT22;2383;48.632;10.156;2024-01-16T11:17:23;-1.10;90.20
4739;DHT22;2383;48.632;10.156;2024-01-16T11:21:26;-0.60;90.60
4739;DHT22;2383;48.632;10.156;2024-01-16T11:25:32;-0.80;90.20
4739;DHT22;2383;48.632;10.156;2024-01-16T11:29:36;-0.90;89.90
4739;DHT22;2383;48.632;10.156;2024-01-16T11:37:41;0.20;90.50
4739;DHT22;2383;48.632;10.156;2024-01-16T11:41:51;0.20;89.80
4739;DHT22;2383;48.632;10.156;2024-01-16T11:45:54;0.10;89.70
4739;DHT22;2383;48.632;10.156;2024-01-16T11:50:12;-0.10;88.60
4739;DHT22;2383;48.632;10.156;2024-01-16T11:54:28;0.20;89.90
4739;DHT22;2383;48.632;10.156;2024-01-16T11:58:35;-0.20;89.60
4739;DHT22;2383;48.632;10.156;2024-01-16T12:02:52;0.30;90.30
4739;DHT22;2383;48.632;10.156;2024-01-16T12:06:59;-0.20;90.60
4739;DHT22;2383;48.632;10.156;2024-01-16T12:11:02;0.30;90.70
4739;DHT22;2383;48.632;10.156;2024-01-16T12:15:04;0.50;90.60
4739;DHT22;2383;48.632;10.156;2024-01-16T12:19:09;0.50;90.70
4739;DHT22;2383;48.632;10.156;2024-01-16T12:23:13;0.40;90.50
4739;DHT22;2383;48.632;10.156;2024-01-16T12:27:15;0.40;91.00
4739;DHT22;2383;48.632;10.156;2024-01-16T12:31:18;0.30;90.90
4739;DHT22;2383;48.632;10.156;2024-01-16T12:35:20;0.40;89.80
4739;DHT22;2383;48.632;10.156;2024-01-16T12:39:23;0.60;90.10
4739;DHT22;2383;48.632;10.156;2024-01-16T12:43:25;0.80;90.00
4739;DHT22;2383;48.632;10.156;2024-01-16T12:47:27;0.60;88.10
4739;DHT22;2383;48.632;10.156;2024-01-16T12:51:29;0.50;88.50
4739;DHT22;2383;48.632;10.156;2024-01-16T12:55:32;0.60;88.90
4739;DHT22;2383;48.632;10.156;2024-01-16T12:59:34;0.40;90.30
4739;DHT22;2383;48.632;10.156;2024-01-16T13:03:36;0.20;90.50
4739;DHT22;2383;48.632;10.156;2024-01-16T13:07:37;0.30;90.30
4739;DHT22;2383;48.632;10.156;2024-01-16T13:11:46;0.40;90.20
4739;DHT22;2383;48.632;10.156;2024-01-16T13:15:48;0.20;90.40
4739;DHT22;2383;48.632;10.156;2024-01-16T13:19:51;0.00;90.80
4739;DHT22;2383;48.632;10.156;2024-01-16T13:23:53;0.50;90.40
4739;DHT22;2383;48.632;10.156;2024-01-16T13:27:55;0.80;90.00
4739;DHT22;2383;48.632;10.156;2024-01-16T13:31:57;0.40;89.90
4739;DHT22;2383;48.632;10.156;2024-01-16T13:35:58;0.80;90.00
4739;DHT22;2383;48.632;10.156;2024-01-16T13:40:01;1.00;90.10
4739;DHT22;2383;48.632;10.156;2024-01-16T13:44:04;1.20;85.40
4739;DHT22;2383;48.632;10.156;2024-01-16T13:48:06;1.10;84.60
4739;DHT22;2383;48.632;10.156;2024-01-16T13:52:09;0.70;88.50
4739;DHT22;2383;48.632;10.156;2024-01-16T13:56:10;1.00;87.70
4739;DHT22;2383;48.632;10.156;2024-01-16T14:00:14;0.90;87.00
4739;DHT22;2383;48.632;10.156;2024-01-16T14:04:17;1.10;88.40
4739;DHT22;2383;48.632;10.156;2024-01-16T14:08:18;1.00;87.90
4739;DHT22;2383;48.632;10.156;2024-01-16T14:12:20;1.00;88.20
4739;DHT22;2383;48.632;10.156;2024-01-16T14:16:22;1.10;87.70
4739;DHT22;2383;48.632;10.156;2024-01-16T14:20:45;0.90;88.80
4739;DHT22;2383;48.632;10.156;2024-01-16T14:24:47;1.20;88.60
4739;DHT22;2383;48.632;10.156;2024-01-16T14:28:52;1.10;87.90
4739;DHT22;2383;48.632;10.156;2024-01-16T14:32:54;1.30;87.80
4739;DHT22;2383;48.632;10.156;2024-01-16T14:36:58;1.20;88.00
4739;DHT22;2383;48.632;10.156;2024-01-16T14:41:00;0.80;88.00
4739;DHT22;2383;48.632;10.156;2024-01-16T14:45:02;0.60;89.20
4739;DHT22;2383;48.632;10.156;2024-01-16T14:49:04;0.60;88.40
4739;DHT22;2383;48.632;10.156;2024-01-16T14:53:06;0.50;87.30
4739;DHT22;2383;48.632;10.156;2024-01-16T14:57:08;0.60;89.30
4739;DHT22;2383;48.632;10.156;2024-01-16T15:01:11;0.80;89.50
4739;DHT22;2383;48.632;10.156;2024-01-16T15:05:17;0.50;89.80
4739;DHT22;2383;48.632;10.156;2024-01-16T15:09:21;0.60;89.60
4739;DHT22;2383;48.632;10.156;2024-01-16T15:13:23;0.70;88.90
4739;DHT22;2383;48.632;10.156;2024-01-16T15:17:25;0.70;87.70
4739;DHT22;2383;48.632;10.156;2024-01-16T15:21:29;0.60;87.30
4739;DHT22;2383;48.632;10.156;2024-01-16T15:25:32;0.60;87.30
4739;DHT22;2383;48.632;10.156;2024-01-16T15:29:34;0.60;87.10
4739;DHT22;2383;48.632;10.156;2024-01-16T15:33:36;0.40;86.90
4739;DHT22;2383;48.632;10.156;2024-01-16T15:37:38;-0.10;86.40
4739;DHT22;2383;48.632;10.156;2024-01-16T15:41:40;-0.10;87.20
4739;DHT22;2383;48.632;10.156;2024-01-16T15:45:42;-0.10;87.20
4739;DHT22;2383;48.632;10.156;2024-01-16T15:49:44;0.10;88.40
4739;DHT22;2383;48.632;10.156;2024-01-16T15:53:46;-0.10;87.40
4739;DHT22;2383;48.632;10.156;2024-01-16T15:57:48;-0.10;87.80
4739;DHT22;2383;48.632;10.156;2024-01-16T16:01:50;-0.20;88.50
4739;DHT22;2383;48.632;10.156;2024-01-16T16:05:54;-0.20;88.90
4739;DHT22;2383;48.632;10.156;2024-01-16T16:09:56;-0.30;88.90
4739;DHT22;2383;48.632;10.156;2024-01-16T16:13:59;-0.30;89.10
4739;DHT22;2383;48.632;10.156;2024-01-16T16:18:00;-0.50;89.20
4739;DHT22;2383;48.632;10.156;2024-01-16T16:22:04;-0.50;89.10
4739;DHT22;2383;48.632;10.156;2024-01-16T16:26:06;-0.50;89.40
4739;DHT22;2383;48.632;10.156;2024-01-16T16:30:08;-0.60;89.50
4739;DHT22;2383;48.632;10.156;2024-01-16T16:34:13;-0.80;89.80
4739;DHT22;2383;48.632;10.156;2024-01-16T16:38:19;-0.90;89.90
4739;DHT22;2383;48.632;10.156;2024-01-16T16:42:21;-0.90;89.90
4739;DHT22;2383;48.632;10.156;2024-01-16T16:46:23;-0.90;90.30
4739;DHT22;2383;48.632;10.156;2024-01-16T16:50:25;-1.20;90.30
4739;DHT22;2383;48.632;10.156;2024-01-16T16:54:27;-1.20;90.00
4739;DHT22;2383;48.632;10.156;2024-01-16T16:58:31;-1.20;90.20
4739;DHT22;2383;48.632;10.156;2024-01-16T17:02:33;-1.50;90.10
4739;DHT22;2383;48.632;10.156;2024-01-16T17:06:35;-1.40;89.20
4739;DHT22;2383;48.632;10.156;2024-01-16T17:10:38;-1.50;89.30
4739;DHT22;2383;48.632;10.156;2024-01-16T17:14:40;-1.70;89.70
4739;DHT22;2383;48.632;10.156;2024-01-16T17:18:42;-1.70;89.00
4739;DHT22;2383;48.632;10.156;2024-01-16T17:22:44;-1.90;89.50
4739;DHT22;2383;48.632;10.156;2024-01-16T17:26:46;-1.80;88.30
4739;DHT22;2383;48.632;10.156;2024-01-16T17:30:51;-1.90;87.90
4739;DHT22;2383;48.632;10.156;2024-01-16T17:34:54;-2.00;88.50
4739;DHT22;2383;48.632;10.156;2024-01-16T17:38:56;-1.90;88.80
4739;DHT22;2383;48.632;10.156;2024-01-16T17:43:03;-2.30;88.00
4739;DHT22;2383;48.632;10.156;2024-01-16T17:47:05;-2.30;88.40
4739;DHT22;2383;48.632;10.156;2024-01-16T17:51:07;-2.30;88.70
4739;DHT22;2383;48.632;10.156;2024-01-16T17:55:09;-2.50;89.30
4739;DHT22;2383;48.632;10.156;2024-01-16T17:59:14;-2.60;90.10
4739;DHT22;2383;48.632;10.156;2024-01-16T18:03:16;-2.70;89.70
4739;DHT22;2383;48.632;10.156;2024-01-16T18:07:41;-2.60;89.10
4739;DHT22;2383;48.632;10.156;2024-01-16T18:11:51;-2.60;87.90
4739;DHT22;2383;48.632;10.156;2024-01-16T18:15:53;-3.10;89.30
4739;DHT22;2383;48.632;10.156;2024-01-16T18:19:55;-3.00;88.30
4739;DHT22;2383;48.632;10.156;2024-01-16T18:23:59;-2.90;88.00
4739;DHT22;2383;48.632;10.156;2024-01-16T18:28:01;-3.20;88.10
4739;DHT22;2383;48.632;10.156;2024-01-16T18:32:03;-3.30;88.40
4739;DHT22;2383;48.632;10.156;2024-01-16T18:36:05;-3.30;87.40
4739;DHT22;2383;48.632;10.156;2024-01-16T18:40:11;-4.10;89.60
4739;DHT22;2383;48.632;10.156;2024-01-16T18:44:17;-3.70;88.80
4739;DHT22;2383;48.632;10.156;2024-01-16T18:48:19;-4.00;89.50
4739;DHT22;2383;48.632;10.156;2024-01-16T18:52:22;-3.60;88.40
4739;DHT22;2383;48.632;10.156;2024-01-16T18:56:25;-4.10;88.30
4739;DHT22;2383;48.632;10.156;2024-01-16T19:00:27;-4.30;89.40
4739;DHT22;2383;48.632;10.156;2024-01-16T19:04:29;-4.30;89.20
4739;DHT22;2383;48.632;10.156;2024-01-16T19:08:34;-4.20;88.80
4739;DHT22;2383;48.632;10.156;2024-01-16T19:12:36;-4.20;88.30
4739;DHT22;2383;48.632;10.156;2024-01-16T19:16:38;-4.10;87.70
4739;DHT22;2383;48.632;10.156;2024-01-16T19:20:39;-4.10;88.00
4739;DHT22;2383;48.632;10.156;2024-01-16T19:24:41;-4.10;88.10
4739;DHT22;2383;48.632;10.156;2024-01-16T19:28:43;-4.70;88.50
4739;DHT22;2383;48.632;10.156;2024-01-16T19:32:46;-4.80;88.30
4739;DHT22;2383;48.632;10.156;2024-01-16T19:36:49;-5.10;87.90
4739;DHT22;2383;48.632;10.156;2024-01-16T19:40:51;-4.90;87.60
4739;DHT22;2383;48.632;10.156;2024-01-16T19:44:54;-5.00;88.50
4739;DHT22;2383;48.632;10.156;2024-01-16T19:48:56;-4.70;86.90
4739;DHT22;2383;48.632;10.156;2024-01-16T19:52:58;-5.00;86.70
4739;DHT22;2383;48.632;10.156;2024-01-16T19:57:01;-5.50;88.30
4739;DHT22;2383;48.632;10.156;2024-01-16T20:01:03;-5.20;87.50
4739;DHT22;2383;48.632;10.156;2024-01-16T20:05:05;-5.00;86.90
4739;DHT22;2383;48.632;10.156;2024-01-16T20:09:07;-5.10;86.20
4739;DHT22;2383;48.632;10.156;2024-01-16T20:13:10;-5.00;85.80
4739;DHT22;2383;48.632;10.156;2024-01-16T20:17:12;-5.10;85.60
4739;DHT22;2383;48.632;10.156;2024-01-16T20:21:16;-5.10;86.60
4739;DHT22;2383;48.632;10.156;2024-01-16T20:25:18;-5.00;86.70
4739;DHT22;2383;48.632;10.156;2024-01-16T20:29:21;-5.10;86.80
4739;DHT22;2383;48.632;10.156;2024-01-16T20:33:23;-5.60;87.10
4739;DHT22;2383;48.632;10.156;2024-01-16T20:37:25;-5.70;87.70
4739;DHT22;2383;48.632;10.156;2024-01-16T20:41:27;-5.30;86.60
4739;DHT22;2383;48.632;10.156;2024-01-16T20:45:29;-5.60;86.70
4739;DHT22;2383;48.632;10.156;2024-01-16T20:49:31;-5.50;86.10
4739;DHT22;2383;48.632;10.156;2024-01-16T20:53:33;-5.60;85.70
4739;DHT22;2383;48.632;10.156;2024-01-16T20:57:35;-5.80;86.30
4739;DHT22;2383;48.632;10.156;2024-01-16T21:01:39;-6.10;86.50
4739;DHT22;2383;48.632;10.156;2024-01-16T21:05:41;-6.00;87.30
4739;DHT22;2383;48.632;10.156;2024-01-16T21:09:43;-5.90;87.30
4739;DHT22;2383;48.632;10.156;2024-01-16T21:13:45;-5.90;87.50
4739;DHT22;2383;48.632;10.156;2024-01-16T21:17:47;-6.40;88.30
4739;DHT22;2383;48.632;10.156;2024-01-16T21:21:50;-5.90;87.50
4739;DHT22;2383;48.632;10.156;2024-01-16T21:25:52;-5.90;87.10
4739;DHT22;2383;48.632;10.156;2024-01-16T21:29:54;-5.90;87.20
4739;DHT22;2383;48.632;10.156;2024-01-16T21:33:56;-5.90;86.90
4739;DHT22;2383;48.632;10.156;2024-01-16T21:38:00;-5.90;87.30
4739;DHT22;2383;48.632;10.156;2024-01-16T21:42:02;-5.60;86.30
4739;DHT22;2383;48.632;10.156;2024-01-16T21:46:05;-6.10;86.30
4739;DHT22;2383;48.632;10.156;2024-01-16T21:50:07;-6.50;87.90
4739;DHT22;2383;48.632;10.156;2024-01-16T21:54:10;-5.90;86.90
4739;DHT22;2383;48.632;10.156;2024-01-16T21:58:12;-5.80;86.70
4739;DHT22;2383;48.632;10.156;2024-01-16T22:02:14;-6.10;87.00
4739;DHT22;2383;48.632;10.156;2024-01-16T22:06:19;-6.10;87.70
4739;DHT22;2383;48.632;10.156;2024-01-16T22:10:22;-6.20;87.80
4739;DHT22;2383;48.632;10.156;2024-01-16T22:14:24;-6.00;87.20
4739;DHT22;2383;48.632;10.156;2024-01-16T22:18:26;-6.20;86.30
4739;DHT22;2383;48.632;10.156;2024-01-16T22:22:29;-6.30;87.30
4739;DHT22;2383;48.632;10.156;2024-01-16T22:26:57;-6.10;86.10
4739;DHT22;2383;48.632;10.156;2024-01-16T22:30:59;-6.10;86.50
4739;DHT22;2383;48.632;10.156;2024-01-16T22:35:01;-5.80;85.60
4739;DHT22;2383;48.632;10.156;2024-01-16T22:39:03;-5.70;85.30
4739;DHT22;2383;48.632;10.156;2024-01-16T22:43:06;-5.90;86.30
4739;DHT22;2383;48.632;10.156;2024-01-16T22:47:07;-6.10;85.60
4739;DHT22;2383;48.632;10.156;2024-01-16T22:51:09;-6.60;86.50
4739;DHT22;2383;48.632;10.156;2024-01-16T22:55:11;-6.60;87.00
4739;DHT22;2383;48.632;10.156;2024-01-16T22:59:13;-6.60;86.70
4739;DHT22;2383;48.632;10.156;2024-01-16T23:03:15;-6.90;87.10
4739;DHT22;2383;48.632;10.156;2024-01-16T23:07:17;-6.90;88.30
4739;DHT22;2383;48.632;10.156;2024-01-16T23:11:19;-6.40;87.60
4739;DHT22;2383;48.632;10.156;2024-01-16T23:15:21;-6.00;86.30
4739;DHT22;2383;48.632;10.156;2024-01-16T23:19:23;-6.70;87.40
4739;DHT22;2383;48.632;10.156;2024-01-16T23:23:25;-6.00;86.80
4739;DHT22;2383;48.632;10.156;2024-01-16T23:27:27;-6.10;87.20
4739;DHT22;2383;48.632;10.156;2024-01-16T23:31:34;-5.90;87.20
4739;DHT22;2383;48.632;10.156;2024-01-16T23:35:36;-5.70;85.70
4739;DHT22;2383;48.632;10.156;2024-01-16T23:39:38;-5.90;86.40
4739;DHT22;2383;48.632;10.156;2024-01-16T23:43:41;-6.40;87.00
4739;DHT22;2383;48.632;10.156;2024-01-16T23:47:45;-6.00;87.70
4739;DHT22;2383;48.632;10.156;2024-01-16T23:51:50;-6.20;88.10
4739;DHT22;2383;48.632;10.156;2024-01-16T23:55:52;-5.90;88.90
4739;DHT22;2383;48.632;10.156;2024-01-16T23:59:55;-5.60;88.20
